sensor_id;sensor_type;location;lat;lon;timestamp;temperature;humidity
3256;DHT22;1640;48.504;9.224;2023-04-03T00:00:46;4.10;21.20
3256;DHT22;1640;48.504;9.224;2023-04-03T00:03:15;4.00;18.20
3256;DHT22;1640;48.504;9.224;2023-04-03T00:05:43;4.00;18.10
3256;DHT22;1640;48.504;9.224;2023-04-03T00:08:10;4.00;16.60
3256;DHT22;1640;48.504;9.224;2023-04-03T00:10:38;4.00;16.40
3256;DHT22;1640;48.504;9.224;2023-04-03T00:13:07;3.90;14.50
3256;DHT22;1640;48.504;9.224;2023-04-03T00:15:36;3.90;12.20
3256;DHT22;1640;48.504;9.224;2023-04-03T00:18:04;4.00;12.90
3256;DHT22;1640;48.504;9.224;2023-04-03T00:20:33;4.10;14.90
3256;DHT22;1640;48.504;9.224;2023-04-03T00:23:01;4.20;16.10
3256;DHT22;1640;48.504;9.224;2023-04-03T00:25:28;4.20;19.80
3256;DHT22;1640;48.504;9.224;2023-04-03T00:27:56;4.20;18.10
3256;DHT22;1640;48.504;9.224;2023-04-03T00:30:25;4.20;21.10
3256;DHT22;1640;48.504;9.224;2023-04-03T00:32:53;4.20;20.40
3256;DHT22;1640;48.504;9.224;2023-04-03T00:35:22;4.10;21.40
3256;DHT22;1640;48.504;9.224;2023-04-03T00:37:51;4.10;20.90
3256;DHT22;1640;48.504;9.224;2023-04-03T00:40:19;4.20;20.30
3256;DHT22;1640;48.504;9.224;2023-04-03T00:42:48;4.20;19.10
3256;DHT22;1640;48.504;9.224;2023-04-03T00:45:41;4.20;19.80
3256;DHT22;1640;48.504;9.224;2023-04-03T00:48:15;4.30;21.60
3256;DHT22;1640;48.504;9.224;2023-04-03T00:50:44;4.20;24.50
3256;DHT22;1640;48.504;9.224;2023-04-03T00:53:16;4.20;23.00
3256;DHT22;1640;48.504;9.224;2023-04-03T00:55:44;4.10;22.80
3256;DHT22;1640;48.504;9.224;2023-04-03T00:58:15;4.10;18.90
3256;DHT22;1640;48.504;9.224;2023-04-03T01:00:49;4.00;17.20
3256;DHT22;1640;48.504;9.224;2023-04-03T01:03:22;4.00;17.20
3256;DHT22;1640;48.504;9.224;2023-04-03T01:05:49;4.10;15.60
3256;DHT22;1640;48.504;9.224;2023-04-03T01:08:17;4.10;20.70
3256;DHT22;1640;48.504;9.224;2023-04-03T01:10:45;4.00;17.10
3256;DHT22;1640;48.504;9.224;2023-04-03T01:13:21;4.00;15.10
3256;DHT22;1640;48.504;9.224;2023-04-03T01:15:54;4.00;15.80
3256;DHT22;1640;48.504;9.224;2023-04-03T01:18:23;4.00;16.60
3256;DHT22;1640;48.504;9.224;2023-04-03T01:24:16;3.90;16.70
3256;DHT22;1640;48.504;9.224;2023-04-03T01:26:48;3.90;15.40
3256;DHT22;1640;48.504;9.224;2023-04-03T01:29:15;3.90;16.20
3256;DHT22;1640;48.504;9.224;2023-04-03T01:31:50;3.90;12.40
3256;DHT22;1640;48.504;9.224;2023-04-03T01:34:17;4.00;14.90
3256;DHT22;1640;48.504;9.224;2023-04-03T01:36:46;4.00;16.90
3256;DHT22;1640;48.504;9.224;2023-04-03T01:39:15;3.90;18.80
3256;DHT22;1640;48.504;9.224;2023-04-03T01:41:42;3.90;14.80
3256;DHT22;1640;48.504;9.224;2023-04-03T01:44:10;3.90;14.80
3256;DHT22;1640;48.504;9.224;2023-04-03T01:46:38;3.80;15.90
3256;DHT22;1640;48.504;9.224;2023-04-03T01:49:09;3.80;15.10
3256;DHT22;1640;48.504;9.224;2023-04-03T01:51:37;3.80;17.20
3256;DHT22;1640;48.504;9.224;2023-04-03T01:54:04;3.70;17.10
3256;DHT22;1640;48.504;9.224;2023-04-03T01:56:32;3.70;15.30
3256;DHT22;1640;48.504;9.224;2023-04-03T01:58:59;3.70;14.90
3256;DHT22;1640;48.504;9.224;2023-04-03T02:01:27;3.70;16.40
3256;DHT22;1640;48.504;9.224;2023-04-03T02:03:54;3.70;13.60
3256;DHT22;1640;48.504;9.224;2023-04-03T02:06:23;3.70;12.50
3256;DHT22;1640;48.504;9.224;2023-04-03T02:08:51;3.70;9.70
3256;DHT22;1640;48.504;9.224;2023-04-03T02:11:18;3.60;12.70
3256;DHT22;1640;48.504;9.224;2023-04-03T02:13:46;3.60;10.70
3256;DHT22;1640;48.504;9.224;2023-04-03T02:16:13;3.60;11.00
3256;DHT22;1640;48.504;9.224;2023-04-03T02:18:41;3.60;11.50
3256;DHT22;1640;48.504;9.224;2023-04-03T02:21:08;3.60;10.40
3256;DHT22;1640;48.504;9.224;2023-04-03T02:23:37;3.60;10.50
3256;DHT22;1640;48.504;9.224;2023-04-03T02:26:07;3.60;11.30
3256;DHT22;1640;48.504;9.224;2023-04-03T02:28:34;3.60;10.90
3256;DHT22;1640;48.504;9.224;2023-04-03T02:31:03;3.60;14.60
3256;DHT22;1640;48.504;9.224;2023-04-03T02:33:32;3.60;12.10
3256;DHT22;1640;48.504;9.224;2023-04-03T02:36:00;3.50;10.00
3256;DHT22;1640;48.504;9.224;2023-04-03T02:38:27;3.50;7.10
3256;DHT22;1640;48.504;9.224;2023-04-03T02:41:01;3.50;11.60
3256;DHT22;1640;48.504;9.224;2023-04-03T02:43:28;3.40;10.50
3256;DHT22;1640;48.504;9.224;2023-04-03T02:45:56;3.40;9.00
3256;DHT22;1640;48.504;9.224;2023-04-03T02:48:24;3.40;9.60
3256;DHT22;1640;48.504;9.224;2023-04-03T02:50:52;3.40;9.60
3256;DHT22;1640;48.504;9.224;2023-04-03T02:53:20;3.50;9.40
3256;DHT22;1640;48.504;9.224;2023-04-03T02:55:47;3.40;6.90
3256;DHT22;1640;48.504;9.224;2023-04-03T02:58:17;3.50;6.20
3256;DHT22;1640;48.504;9.224;2023-04-03T03:00:44;3.50;10.70
3256;DHT22;1640;48.504;9.224;2023-04-03T03:03:12;3.50;11.30
3256;DHT22;1640;48.504;9.224;2023-04-03T03:05:40;3.60;16.10
3256;DHT22;1640;48.504;9.224;2023-04-03T03:08:07;3.60;15.40
3256;DHT22;1640;48.504;9.224;2023-04-03T03:10:35;3.50;16.70
3256;DHT22;1640;48.504;9.224;2023-04-03T03:13:02;3.40;16.90
3256;DHT22;1640;48.504;9.224;2023-04-03T03:15:31;3.40;14.60
3256;DHT22;1640;48.504;9.224;2023-04-03T03:17:59;3.40;15.10
3256;DHT22;1640;48.504;9.224;2023-04-03T03:20:26;3.50;18.90
3256;DHT22;1640;48.504;9.224;2023-04-03T03:22:54;3.40;19.00
3256;DHT22;1640;48.504;9.224;2023-04-03T03:25:21;3.50;19.40
3256;DHT22;1640;48.504;9.224;2023-04-03T03:27:49;3.50;20.90
3256;DHT22;1640;48.504;9.224;2023-04-03T03:30:17;3.50;21.10
3256;DHT22;1640;48.504;9.224;2023-04-03T03:32:46;3.50;22.80
3256;DHT22;1640;48.504;9.224;2023-04-03T03:35:13;3.40;19.30
3256;DHT22;1640;48.504;9.224;2023-04-03T03:37:41;3.40;17.90
3256;DHT22;1640;48.504;9.224;2023-04-03T03:40:09;3.50;17.50
3256;DHT22;1640;48.504;9.224;2023-04-03T03:42:39;3.50;18.10
3256;DHT22;1640;48.504;9.224;2023-04-03T03:45:07;3.50;21.80
3256;DHT22;1640;48.504;9.224;2023-04-03T03:47:35;3.50;21.30
3256;DHT22;1640;48.504;9.224;2023-04-03T03:50:05;3.50;20.80
3256;DHT22;1640;48.504;9.224;2023-04-03T03:52:33;3.40;20.30
3256;DHT22;1640;48.504;9.224;2023-04-03T03:55:00;3.40;19.10
3256;DHT22;1640;48.504;9.224;2023-04-03T03:57:28;3.40;17.70
3256;DHT22;1640;48.504;9.224;2023-04-03T03:59:56;3.40;15.10
3256;DHT22;1640;48.504;9.224;2023-04-03T04:02:23;3.40;18.40
3256;DHT22;1640;48.504;9.224;2023-04-03T04:04:51;3.40;16.20
3256;DHT22;1640;48.504;9.224;2023-04-03T04:07:20;3.40;14.80
3256;DHT22;1640;48.504;9.224;2023-04-03T04:09:48;3.40;17.10
3256;DHT22;1640;48.504;9.224;2023-04-03T04:12:15;3.40;17.40
3256;DHT22;1640;48.504;9.224;2023-04-03T04:14:43;3.40;19.00
3256;DHT22;1640;48.504;9.224;2023-04-03T04:17:12;3.30;18.10
3256;DHT22;1640;48.504;9.224;2023-04-03T04:19:40;3.40;15.30
3256;DHT22;1640;48.504;9.224;2023-04-03T04:22:07;3.40;11.80
3256;DHT22;1640;48.504;9.224;2023-04-03T04:24:36;3.50;15.70
3256;DHT22;1640;48.504;9.224;2023-04-03T04:27:04;3.60;15.00
3256;DHT22;1640;48.504;9.224;2023-04-03T04:29:31;3.60;22.70
3256;DHT22;1640;48.504;9.224;2023-04-03T04:32:01;3.60;32.00
3256;DHT22;1640;48.504;9.224;2023-04-03T04:34:29;3.60;36.60
3256;DHT22;1640;48.504;9.224;2023-04-03T04:36:56;3.60;39.60
3256;DHT22;1640;48.504;9.224;2023-04-03T04:39:24;3.50;41.90
3256;DHT22;1640;48.504;9.224;2023-04-03T04:41:53;3.50;40.40
3256;DHT22;1640;48.504;9.224;2023-04-03T04:44:21;3.50;39.10
3256;DHT22;1640;48.504;9.224;2023-04-03T04:46:48;3.60;39.60
3256;DHT22;1640;48.504;9.224;2023-04-03T04:49:16;3.70;44.00
3256;DHT22;1640;48.504;9.224;2023-04-03T04:51:43;3.60;44.90
3256;DHT22;1640;48.504;9.224;2023-04-03T04:54:10;3.60;41.00
3256;DHT22;1640;48.504;9.224;2023-04-03T04:56:38;3.50;44.20
3256;DHT22;1640;48.504;9.224;2023-04-03T04:59:08;3.60;41.10
3256;DHT22;1640;48.504;9.224;2023-04-03T05:01:35;3.60;41.90
3256;DHT22;1640;48.504;9.224;2023-04-03T05:04:03;3.60;45.10
3256;DHT22;1640;48.504;9.224;2023-04-03T05:06:30;3.60;43.60
3256;DHT22;1640;48.504;9.224;2023-04-03T05:08:59;3.70;43.20
3256;DHT22;1640;48.504;9.224;2023-04-03T05:11:27;3.70;44.70
3256;DHT22;1640;48.504;9.224;2023-04-03T05:13:54;3.60;43.30
3256;DHT22;1640;48.504;9.224;2023-04-03T05:16:23;3.60;41.00
3256;DHT22;1640;48.504;9.224;2023-04-03T05:18:51;3.60;39.20
3256;DHT22;1640;48.504;9.224;2023-04-03T05:21:18;3.70;41.00
3256;DHT22;1640;48.504;9.224;2023-04-03T05:23:47;3.70;42.60
3256;DHT22;1640;48.504;9.224;2023-04-03T05:26:15;3.60;43.40
3256;DHT22;1640;48.504;9.224;2023-04-03T05:28:42;3.60;40.70
3256;DHT22;1640;48.504;9.224;2023-04-03T05:31:10;3.70;42.10
3256;DHT22;1640;48.504;9.224;2023-04-03T05:33:39;3.80;47.10
3256;DHT22;1640;48.504;9.224;2023-04-03T05:36:07;3.80;48.00
3256;DHT22;1640;48.504;9.224;2023-04-03T05:38:35;3.80;54.80
3256;DHT22;1640;48.504;9.224;2023-04-03T05:41:02;3.70;59.70
3256;DHT22;1640;48.504;9.224;2023-04-03T05:43:30;3.70;57.10
3256;DHT22;1640;48.504;9.224;2023-04-03T05:45:58;3.80;58.10
3256;DHT22;1640;48.504;9.224;2023-04-03T05:48:26;3.90;60.60
3256;DHT22;1640;48.504;9.224;2023-04-03T05:50:55;4.00;61.40
3256;DHT22;1640;48.504;9.224;2023-04-03T05:53:26;4.00;65.60
3256;DHT22;1640;48.504;9.224;2023-04-03T05:55:54;4.10;66.30
3256;DHT22;1640;48.504;9.224;2023-04-03T05:58:22;4.10;67.20
3256;DHT22;1640;48.504;9.224;2023-04-03T06:00:49;4.20;64.90
3256;DHT22;1640;48.504;9.224;2023-04-03T06:03:17;4.30;67.00
3256;DHT22;1640;48.504;9.224;2023-04-03T06:05:45;4.30;67.20
3256;DHT22;1640;48.504;9.224;2023-04-03T06:08:15;4.20;69.60
3256;DHT22;1640;48.504;9.224;2023-04-03T06:10:42;4.30;69.80
3256;DHT22;1640;48.504;9.224;2023-04-03T06:13:10;4.30;66.90
3256;DHT22;1640;48.504;9.224;2023-04-03T06:15:38;4.40;67.90
3256;DHT22;1640;48.504;9.224;2023-04-03T06:18:06;4.40;68.30
3256;DHT22;1640;48.504;9.224;2023-04-03T06:20:34;4.40;71.80
3256;DHT22;1640;48.504;9.224;2023-04-03T06:23:01;4.40;70.50
3256;DHT22;1640;48.504;9.224;2023-04-03T06:25:30;4.40;70.60
3256;DHT22;1640;48.504;9.224;2023-04-03T06:27:59;4.50;71.80
3256;DHT22;1640;48.504;9.224;2023-04-03T06:30:27;4.50;75.10
3256;DHT22;1640;48.504;9.224;2023-04-03T06:32:55;4.50;70.90
3256;DHT22;1640;48.504;9.224;2023-04-03T06:35:22;4.50;73.20
3256;DHT22;1640;48.504;9.224;2023-04-03T06:37:51;4.50;72.90
3256;DHT22;1640;48.504;9.224;2023-04-03T06:40:22;4.50;72.10
3256;DHT22;1640;48.504;9.224;2023-04-03T06:42:51;4.50;71.60
3256;DHT22;1640;48.504;9.224;2023-04-03T06:45:19;4.30;72.10
3256;DHT22;1640;48.504;9.224;2023-04-03T06:47:47;4.30;72.10
3256;DHT22;1640;48.504;9.224;2023-04-03T06:50:15;4.20;71.10
3256;DHT22;1640;48.504;9.224;2023-04-03T06:52:42;4.30;70.60
3256;DHT22;1640;48.504;9.224;2023-04-03T06:55:10;4.30;70.60
3256;DHT22;1640;48.504;9.224;2023-04-03T06:57:38;4.50;72.30
3256;DHT22;1640;48.504;9.224;2023-04-03T07:00:08;4.60;71.90
3256;DHT22;1640;48.504;9.224;2023-04-03T07:02:36;4.80;73.40
3256;DHT22;1640;48.504;9.224;2023-04-03T07:05:04;4.80;73.10
3256;DHT22;1640;48.504;9.224;2023-04-03T07:07:32;4.70;72.90
3256;DHT22;1640;48.504;9.224;2023-04-03T07:10:00;4.70;73.80
3256;DHT22;1640;48.504;9.224;2023-04-03T07:12:28;4.80;73.60
3256;DHT22;1640;48.504;9.224;2023-04-03T07:14:55;4.90;73.40
3256;DHT22;1640;48.504;9.224;2023-04-03T07:17:25;4.90;73.60
3256;DHT22;1640;48.504;9.224;2023-04-03T07:19:52;4.90;73.20
3256;DHT22;1640;48.504;9.224;2023-04-03T07:22:20;5.00;74.60
3256;DHT22;1640;48.504;9.224;2023-04-03T07:24:48;5.10;74.80
3256;DHT22;1640;48.504;9.224;2023-04-03T07:27:15;5.20;74.90
3256;DHT22;1640;48.504;9.224;2023-04-03T07:29:43;5.30;75.90
3256;DHT22;1640;48.504;9.224;2023-04-03T07:32:11;5.20;75.20
3256;DHT22;1640;48.504;9.224;2023-04-03T07:34:40;5.20;75.50
3256;DHT22;1640;48.504;9.224;2023-04-03T07:37:07;5.30;75.10
3256;DHT22;1640;48.504;9.224;2023-04-03T07:39:36;5.40;75.50
3256;DHT22;1640;48.504;9.224;2023-04-03T07:42:03;5.50;75.50
3256;DHT22;1640;48.504;9.224;2023-04-03T07:44:31;5.50;75.20
3256;DHT22;1640;48.504;9.224;2023-04-03T07:46:58;5.50;76.20
3256;DHT22;1640;48.504;9.224;2023-04-03T07:49:26;5.60;75.50
3256;DHT22;1640;48.504;9.224;2023-04-03T07:51:56;5.70;75.90
3256;DHT22;1640;48.504;9.224;2023-04-03T07:54:24;5.70;75.80
3256;DHT22;1640;48.504;9.224;2023-04-03T07:56:52;5.90;75.90
3256;DHT22;1640;48.504;9.224;2023-04-03T07:59:19;5.80;76.10
3256;DHT22;1640;48.504;9.224;2023-04-03T08:01:47;5.70;76.10
3256;DHT22;1640;48.504;9.224;2023-04-03T08:04:14;5.70;76.10
3256;DHT22;1640;48.504;9.224;2023-04-03T08:06:42;5.80;75.90
3256;DHT22;1640;48.504;9.224;2023-04-03T08:09:11;5.80;75.80
3256;DHT22;1640;48.504;9.224;2023-04-03T08:11:39;5.90;76.20
3256;DHT22;1640;48.504;9.224;2023-04-03T08:14:07;6.00;75.90
3256;DHT22;1640;48.504;9.224;2023-04-03T08:16:36;6.30;75.90
3256;DHT22;1640;48.504;9.224;2023-04-03T08:19:04;6.50;75.50
3256;DHT22;1640;48.504;9.224;2023-04-03T08:21:33;6.40;75.50
3256;DHT22;1640;48.504;9.224;2023-04-03T08:24:01;6.30;75.40
3256;DHT22;1640;48.504;9.224;2023-04-03T08:26:30;6.30;75.60
3256;DHT22;1640;48.504;9.224;2023-04-03T08:28:57;6.40;75.60
3256;DHT22;1640;48.504;9.224;2023-04-03T08:31:25;6.60;76.10
3256;DHT22;1640;48.504;9.224;2023-04-03T08:33:52;6.80;75.20
3256;DHT22;1640;48.504;9.224;2023-04-03T08:36:21;6.90;74.50
3256;DHT22;1640;48.504;9.224;2023-04-03T08:38:50;6.90;75.10
3256;DHT22;1640;48.504;9.224;2023-04-03T08:41:25;7.00;74.60
3256;DHT22;1640;48.504;9.224;2023-04-03T08:44:07;6.90;74.10
3256;DHT22;1640;48.504;9.224;2023-04-03T08:46:52;6.60;74.80
3256;DHT22;1640;48.504;9.224;2023-04-03T08:49:28;6.60;74.80
3256;DHT22;1640;48.504;9.224;2023-04-03T08:51:58;6.40;74.10
3256;DHT22;1640;48.504;9.224;2023-04-03T08:54:30;6.50;74.50
3256;DHT22;1640;48.504;9.224;2023-04-03T08:57:02;6.60;74.40
3256;DHT22;1640;48.504;9.224;2023-04-03T08:59:34;6.70;74.20
3256;DHT22;1640;48.504;9.224;2023-04-03T09:02:18;7.00;74.60
3256;DHT22;1640;48.504;9.224;2023-04-03T09:04:49;6.80;72.60
3256;DHT22;1640;48.504;9.224;2023-04-03T09:07:22;6.80;73.60
3256;DHT22;1640;48.504;9.224;2023-04-03T09:09:50;7.00;73.50
3256;DHT22;1640;48.504;9.224;2023-04-03T09:12:21;7.10;72.30
3256;DHT22;1640;48.504;9.224;2023-04-03T09:14:59;7.30;73.20
3256;DHT22;1640;48.504;9.224;2023-04-03T09:17:38;7.60;71.60
3256;DHT22;1640;48.504;9.224;2023-04-03T09:20:17;7.70;71.50
3256;DHT22;1640;48.504;9.224;2023-04-03T09:22:47;7.70;71.10
3256;DHT22;1640;48.504;9.224;2023-04-03T09:25:19;7.60;70.80
3256;DHT22;1640;48.504;9.224;2023-04-03T09:27:49;7.60;70.00
3256;DHT22;1640;48.504;9.224;2023-04-03T09:30:20;7.50;69.30
3256;DHT22;1640;48.504;9.224;2023-04-03T09:32:51;7.30;70.30
3256;DHT22;1640;48.504;9.224;2023-04-03T09:35:22;7.00;72.10
3256;DHT22;1640;48.504;9.224;2023-04-03T09:37:51;7.20;72.50
3256;DHT22;1640;48.504;9.224;2023-04-03T09:40:38;7.40;71.50
3256;DHT22;1640;48.504;9.224;2023-04-03T09:43:26;7.70;71.50
3256;DHT22;1640;48.504;9.224;2023-04-03T09:45:56;7.60;69.30
3256;DHT22;1640;48.504;9.224;2023-04-03T09:48:24;7.40;71.10
3256;DHT22;1640;48.504;9.224;2023-04-03T09:50:56;7.00;71.30
3256;DHT22;1640;48.504;9.224;2023-04-03T09:53:29;6.80;72.10
3256;DHT22;1640;48.504;9.224;2023-04-03T09:55:59;6.80;73.60
3256;DHT22;1640;48.504;9.224;2023-04-03T09:58:29;7.00;74.20
3256;DHT22;1640;48.504;9.224;2023-04-03T10:01:01;7.30;73.60
3256;DHT22;1640;48.504;9.224;2023-04-03T10:03:31;7.50;72.80
3256;DHT22;1640;48.504;9.224;2023-04-03T10:06:01;7.60;72.10
3256;DHT22;1640;48.504;9.224;2023-04-03T10:08:30;7.70;70.50
3256;DHT22;1640;48.504;9.224;2023-04-03T10:11:13;7.70;71.30
3256;DHT22;1640;48.504;9.224;2023-04-03T10:13:56;7.70;71.10
3256;DHT22;1640;48.504;9.224;2023-04-03T10:16:32;7.90;71.30
3256;DHT22;1640;48.504;9.224;2023-04-03T10:19:14;7.90;69.30
3256;DHT22;1640;48.504;9.224;2023-04-03T10:21:49;7.70;68.60
3256;DHT22;1640;48.504;9.224;2023-04-03T10:24:21;7.50;70.00
3256;DHT22;1640;48.504;9.224;2023-04-03T10:26:56;7.70;69.00
3256;DHT22;1640;48.504;9.224;2023-04-03T10:29:37;7.40;66.60
3256;DHT22;1640;48.504;9.224;2023-04-03T10:32:24;7.40;67.90
3256;DHT22;1640;48.504;9.224;2023-04-03T10:34:59;7.30;67.30
3256;DHT22;1640;48.504;9.224;2023-04-03T10:37:33;7.20;66.60
3256;DHT22;1640;48.504;9.224;2023-04-03T10:40:15;7.10;67.60
3256;DHT22;1640;48.504;9.224;2023-04-03T10:42:48;7.10;69.30
3256;DHT22;1640;48.504;9.224;2023-04-03T10:45:24;7.30;67.60
3256;DHT22;1640;48.504;9.224;2023-04-03T10:48:02;7.20;68.00
3256;DHT22;1640;48.504;9.224;2023-04-03T10:50:44;7.40;67.00
3256;DHT22;1640;48.504;9.224;2023-04-03T10:53:20;7.60;64.30
3256;DHT22;1640;48.504;9.224;2023-04-03T10:55:58;7.60;64.60
3256;DHT22;1640;48.504;9.224;2023-04-03T10:58:32;7.80;65.20
3256;DHT22;1640;48.504;9.224;2023-04-03T11:01:05;8.00;62.20
3256;DHT22;1640;48.504;9.224;2023-04-03T11:03:36;8.20;61.70
3256;DHT22;1640;48.504;9.224;2023-04-03T11:06:09;8.10;60.00
3256;DHT22;1640;48.504;9.224;2023-04-03T11:08:42;7.90;60.60
3256;DHT22;1640;48.504;9.224;2023-04-03T11:11:14;8.00;60.90
3256;DHT22;1640;48.504;9.224;2023-04-03T11:13:47;8.30;59.30
3256;DHT22;1640;48.504;9.224;2023-04-03T11:16:21;8.40;59.70
3256;DHT22;1640;48.504;9.224;2023-04-03T11:18:54;8.60;60.90
3256;DHT22;1640;48.504;9.224;2023-04-03T11:21:28;8.50;59.60
3256;DHT22;1640;48.504;9.224;2023-04-03T11:23:57;8.40;59.90
3256;DHT22;1640;48.504;9.224;2023-04-03T11:26:29;8.10;62.00
3256;DHT22;1640;48.504;9.224;2023-04-03T11:29:01;8.00;63.00
3256;DHT22;1640;48.504;9.224;2023-04-03T11:31:38;7.80;62.90
3256;DHT22;1640;48.504;9.224;2023-04-03T11:34:23;7.50;62.90
3256;DHT22;1640;48.504;9.224;2023-04-03T11:36:55;7.40;62.60
3256;DHT22;1640;48.504;9.224;2023-04-03T11:39:26;7.30;63.20
3256;DHT22;1640;48.504;9.224;2023-04-03T11:41:55;7.40;63.20
3256;DHT22;1640;48.504;9.224;2023-04-03T11:44:39;7.40;62.60
3256;DHT22;1640;48.504;9.224;2023-04-03T11:47:08;7.40;64.50
3256;DHT22;1640;48.504;9.224;2023-04-03T11:50:02;7.50;63.00
3256;DHT22;1640;48.504;9.224;2023-04-03T11:52:58;7.30;62.90
3256;DHT22;1640;48.504;9.224;2023-04-03T11:55:56;7.20;63.30
3256;DHT22;1640;48.504;9.224;2023-04-03T11:58:25;7.00;63.40
3256;DHT22;1640;48.504;9.224;2023-04-03T12:01:01;6.90;63.60
3256;DHT22;1640;48.504;9.224;2023-04-03T12:03:57;6.90;63.60
3256;DHT22;1640;48.504;9.224;2023-04-03T12:12:58;7.20;62.90
3256;DHT22;1640;48.504;9.224;2023-04-03T12:15:52;7.30;62.00
3256;DHT22;1640;48.504;9.224;2023-04-03T12:18:55;7.30;60.90
3256;DHT22;1640;48.504;9.224;2023-04-03T12:21:23;7.40;61.00
3256;DHT22;1640;48.504;9.224;2023-04-03T12:24:03;7.40;61.30
3256;DHT22;1640;48.504;9.224;2023-04-03T12:26:36;7.50;60.90
3256;DHT22;1640;48.504;9.224;2023-04-03T12:29:15;7.50;60.70
3256;DHT22;1640;48.504;9.224;2023-04-03T12:31:55;7.70;61.10
3256;DHT22;1640;48.504;9.224;2023-04-03T12:37:34;7.70;59.60
3256;DHT22;1640;48.504;9.224;2023-04-03T12:40:10;7.80;59.00
3256;DHT22;1640;48.504;9.224;2023-04-03T12:43:08;7.70;58.50
3256;DHT22;1640;48.504;9.224;2023-04-03T12:45:44;7.70;58.80
3256;DHT22;1640;48.504;9.224;2023-04-03T12:48:15;7.60;58.50
3256;DHT22;1640;48.504;9.224;2023-04-03T12:50:46;7.50;58.80
3256;DHT22;1640;48.504;9.224;2023-04-03T12:53:16;7.80;58.40
3256;DHT22;1640;48.504;9.224;2023-04-03T12:55:45;8.00;57.10
3256;DHT22;1640;48.504;9.224;2023-04-03T12:58:14;8.30;56.90
3256;DHT22;1640;48.504;9.224;2023-04-03T13:00:44;8.30;54.70
3256;DHT22;1640;48.504;9.224;2023-04-03T13:03:23;8.30;55.50
3256;DHT22;1640;48.504;9.224;2023-04-03T13:05:53;8.00;55.40
3256;DHT22;1640;48.504;9.224;2023-04-03T13:08:22;8.10;56.50
3256;DHT22;1640;48.504;9.224;2023-04-03T13:10:54;8.10;55.00
3256;DHT22;1640;48.504;9.224;2023-04-03T13:13:23;7.90;55.80
3256;DHT22;1640;48.504;9.224;2023-04-03T13:15:54;8.00;56.20
3256;DHT22;1640;48.504;9.224;2023-04-03T13:18:24;8.00;56.30
3256;DHT22;1640;48.504;9.224;2023-04-03T13:20:52;8.00;55.80
3256;DHT22;1640;48.504;9.224;2023-04-03T13:23:21;7.80;55.90
3256;DHT22;1640;48.504;9.224;2023-04-03T13:25:50;7.80;55.80
3256;DHT22;1640;48.504;9.224;2023-04-03T13:28:20;7.80;55.90
3256;DHT22;1640;48.504;9.224;2023-04-03T13:31:00;7.80;55.60
3256;DHT22;1640;48.504;9.224;2023-04-03T13:33:31;7.80;55.80
3256;DHT22;1640;48.504;9.224;2023-04-03T13:36:02;7.90;56.60
3256;DHT22;1640;48.504;9.224;2023-04-03T13:38:32;7.90;56.30
3256;DHT22;1640;48.504;9.224;2023-04-03T13:41:05;7.80;56.30
3256;DHT22;1640;48.504;9.224;2023-04-03T13:43:35;7.90;56.50
3256;DHT22;1640;48.504;9.224;2023-04-03T13:46:25;7.60;56.50
3256;DHT22;1640;48.504;9.224;2023-04-03T13:48:54;7.80;58.90
3256;DHT22;1640;48.504;9.224;2023-04-03T13:51:24;7.80;58.50
3256;DHT22;1640;48.504;9.224;2023-04-03T13:53:56;7.70;58.50
3256;DHT22;1640;48.504;9.224;2023-04-03T13:56:31;7.60;58.80
3256;DHT22;1640;48.504;9.224;2023-04-03T13:59:05;7.50;57.70
3256;DHT22;1640;48.504;9.224;2023-04-03T14:01:40;7.50;58.50
3256;DHT22;1640;48.504;9.224;2023-04-03T14:04:15;7.70;58.60
3256;DHT22;1640;48.504;9.224;2023-04-03T14:06:45;7.60;57.40
3256;DHT22;1640;48.504;9.224;2023-04-03T14:09:13;7.40;57.80
3256;DHT22;1640;48.504;9.224;2023-04-03T14:11:42;7.60;59.30
3256;DHT22;1640;48.504;9.224;2023-04-03T14:14:13;7.70;59.30
3256;DHT22;1640;48.504;9.224;2023-04-03T14:16:46;7.70;57.30
3256;DHT22;1640;48.504;9.224;2023-04-03T14:19:19;7.90;57.80
3256;DHT22;1640;48.504;9.224;2023-04-03T14:21:47;8.00;56.60
3256;DHT22;1640;48.504;9.224;2023-04-03T14:24:16;8.10;56.10
3256;DHT22;1640;48.504;9.224;2023-04-03T14:26:45;8.30;56.10
3256;DHT22;1640;48.504;9.224;2023-04-03T14:29:13;8.30;55.10
3256;DHT22;1640;48.504;9.224;2023-04-03T14:31:44;8.20;55.50
3256;DHT22;1640;48.504;9.224;2023-04-03T14:34:12;8.20;55.80
3256;DHT22;1640;48.504;9.224;2023-04-03T14:36:41;8.30;56.20
3256;DHT22;1640;48.504;9.224;2023-04-03T14:39:11;8.40;54.30
3256;DHT22;1640;48.504;9.224;2023-04-03T14:41:43;8.30;54.20
3256;DHT22;1640;48.504;9.224;2023-04-03T14:44:11;8.10;54.60
3256;DHT22;1640;48.504;9.224;2023-04-03T14:46:43;8.10;55.10
3256;DHT22;1640;48.504;9.224;2023-04-03T14:49:14;8.10;55.10
3256;DHT22;1640;48.504;9.224;2023-04-03T14:51:42;8.00;55.00
3256;DHT22;1640;48.504;9.224;2023-04-03T14:54:13;7.90;55.60
3256;DHT22;1640;48.504;9.224;2023-04-03T14:56:41;7.60;54.80
3256;DHT22;1640;48.504;9.224;2023-04-03T14:59:12;7.30;54.40
3256;DHT22;1640;48.504;9.224;2023-04-03T15:01:40;7.30;57.00
3256;DHT22;1640;48.504;9.224;2023-04-03T15:04:13;7.40;55.40
3256;DHT22;1640;48.504;9.224;2023-04-03T15:06:43;7.40;55.60
3256;DHT22;1640;48.504;9.224;2023-04-03T15:09:18;7.40;54.70
3256;DHT22;1640;48.504;9.224;2023-04-03T15:11:47;7.40;54.60
3256;DHT22;1640;48.504;9.224;2023-04-03T15:14:15;7.50;55.60
3256;DHT22;1640;48.504;9.224;2023-04-03T15:16:42;7.70;55.40
3256;DHT22;1640;48.504;9.224;2023-04-03T15:19:12;7.80;53.90
3256;DHT22;1640;48.504;9.224;2023-04-03T15:21:40;7.90;53.10
3256;DHT22;1640;48.504;9.224;2023-04-03T15:24:09;7.80;53.10
3256;DHT22;1640;48.504;9.224;2023-04-03T15:26:37;7.80;53.90
3256;DHT22;1640;48.504;9.224;2023-04-03T15:29:06;7.70;54.20
3256;DHT22;1640;48.504;9.224;2023-04-03T15:31:34;7.50;54.70
3256;DHT22;1640;48.504;9.224;2023-04-03T15:34:03;7.40;55.20
3256;DHT22;1640;48.504;9.224;2023-04-03T15:36:32;7.30;56.20
3256;DHT22;1640;48.504;9.224;2023-04-03T15:39:00;7.40;56.20
3256;DHT22;1640;48.504;9.224;2023-04-03T15:41:30;7.40;57.40
3256;DHT22;1640;48.504;9.224;2023-04-03T15:43:58;7.40;55.20
3256;DHT22;1640;48.504;9.224;2023-04-03T15:46:25;7.50;55.50
3256;DHT22;1640;48.504;9.224;2023-04-03T15:48:53;7.60;55.40
3256;DHT22;1640;48.504;9.224;2023-04-03T15:51:21;7.40;54.80
3256;DHT22;1640;48.504;9.224;2023-04-03T15:53:50;7.40;54.80
3256;DHT22;1640;48.504;9.224;2023-04-03T15:56:17;7.40;54.30
3256;DHT22;1640;48.504;9.224;2023-04-03T15:58:45;7.30;53.90
3256;DHT22;1640;48.504;9.224;2023-04-03T16:01:12;7.50;54.40
3256;DHT22;1640;48.504;9.224;2023-04-03T16:03:41;7.60;52.40
3256;DHT22;1640;48.504;9.224;2023-04-03T16:06:11;7.70;53.70
3256;DHT22;1640;48.504;9.224;2023-04-03T16:08:39;7.80;53.60
3256;DHT22;1640;48.504;9.224;2023-04-03T16:11:08;7.90;53.20
3256;DHT22;1640;48.504;9.224;2023-04-03T16:13:36;7.90;52.30
3256;DHT22;1640;48.504;9.224;2023-04-03T16:16:04;7.70;52.00
3256;DHT22;1640;48.504;9.224;2023-04-03T16:18:34;7.80;52.90
3256;DHT22;1640;48.504;9.224;2023-04-03T16:21:02;7.60;52.70
3256;DHT22;1640;48.504;9.224;2023-04-03T16:23:31;7.50;53.50
3256;DHT22;1640;48.504;9.224;2023-04-03T16:25:58;7.50;52.40
3256;DHT22;1640;48.504;9.224;2023-04-03T16:28:30;7.40;51.80
3256;DHT22;1640;48.504;9.224;2023-04-03T16:30:57;7.30;52.30
3256;DHT22;1640;48.504;9.224;2023-04-03T16:33:27;7.20;51.30
3256;DHT22;1640;48.504;9.224;2023-04-03T16:35:54;7.00;51.80
3256;DHT22;1640;48.504;9.224;2023-04-03T16:38:22;6.90;52.30
3256;DHT22;1640;48.504;9.224;2023-04-03T16:40:50;6.90;51.40
3256;DHT22;1640;48.504;9.224;2023-04-03T16:43:18;6.60;52.70
3256;DHT22;1640;48.504;9.224;2023-04-03T16:45:47;6.50;53.60
3256;DHT22;1640;48.504;9.224;2023-04-03T16:48:15;6.40;54.00
3256;DHT22;1640;48.504;9.224;2023-04-03T16:50:46;6.40;55.00